Aeroporto :
LOGIN :

Iscrizione | Disclaimer

   EN    FR    IT 

 










Sommario :    VFR   VFR Marginale   IFR   IFR Intensivo   IFR Molto Intensivo
Visibilità : 
Base nubi : 
>= 8 km
>= 3000ft
5 / 8 km
1000 / 3000 ft
1500m / 5 km
500 / 1000 ft
800 / 1500m
200 / 500 ft
< 800m
< 200 ft
Simboli :   Temporali  Nebbia  Neve Forte  Precipitazioni Forti  Vento > 20 kt
SIGMETs :   Varie  Temporali  Ghiacco  Turbolenza  Onda orograficha  Ceneri Vulcaniche






- Altitudine del aeroporto : 1325 ft
- Codice IATA : EBU


LFMH - St-Etienne Boutheon

ULTIMO METAR :
  • 190630Z AUTO 01006KT 9999 OVC009 M01/M01 Q1030 TEMPO SG OVC003

METARs OBSOLETI :
  • 190600Z AUTO 01007KT 9999 BKN009 BKN180 OVC200 M01/M01 Q1029 TEMPO SG OVC003
  • 190530Z AUTO 36008KT 9999 FEW008 BKN180 OVC210 M01/M02 Q1029 TEMPO SG OVC003
  • 190500Z AUTO 36006KT 9999 BKN007 BKN170 OVC190 M01/M01 Q1029 TEMPO SG OVC003
  • 190430Z AUTO VRB02KT 9999 FEW007 OVC190 M01/M02 Q1029 TEMPO SG OVC003

TAF TAF LFMH
Valido dal 19 a 03 ore il 20 a 03 ore UTC


190200Z 1903/2003 36006KT CAVOK
PROB30
TEMPO 1905/1909 SG OVC003
BECMG 1909/1911 36012KT SCT030
PROB30
TEMPO 1921/2003 -SN OVC003
ATIS : +33 4 77 36 17 51



MetMap, La meteo Aeronautica in un colpo d'occhio ! - Copyright ORBIFLY Dicembre 2007 - Disclaimer

ORBIFLY MET'MAP TEAM :

Programmazione e sviluppo : Alexandra Zaïnal
Concezione : Baudouin d'Aumeries
Aiuto per la programmazione : Marc-Olivier Méhu
Supporto tecnico e logistico : Manuel Goepfert
Aiuto per la traduzione : Arnaldo La Scala

Contatto : metmap@orbifly.com




FONTI E CREDITI :

   NOAA